Time;durP1;ratioP1;P1;durP2;ratioP2;P2;SDS_P1;SDS_P2;PMS_P1;PMS_P2;Temp;Humidity;BMP_temperature;BMP_pressure;BME280_temperature;BME280_humidity;BME280_pressure;Samples;Min_cycle;Max_cycle;Signal;HPM_P1;HPM_P2
2022/05/20 00:02:02;;;;;;;1.50;1.40;;;;;;;;;;5082081;28;20224;-80
2022/05/20 00:04:29;;;;;;;2.05;1.60;;;;;;;;;;5081968;28;20255;-80
2022/05/20 00:06:57;;;;;;;2.03;1.77;;;;;;;;;;5082270;28;20343;-80
2022/05/20 00:09:24;;;;;;;1.42;1.42;;;;;;;;;;5083430;28;20541;-80
2022/05/20 00:11:51;;;;;;;2.00;1.83;;;;;;;;;;5083022;28;20630;-80
2022/05/20 00:14:20;;;;;;;4.80;1.70;;;;;;;;;;5082864;28;20279;-80
2022/05/20 00:16:47;;;;;;;1.60;1.50;;;;;;;;;;5083181;28;20200;-81
2022/05/20 00:19:15;;;;;;;1.58;1.48;;;;;;;;;;5084084;28;20205;-80
2022/05/20 00:21:42;;;;;;;1.20;1.20;;;;;;;;;;5082199;28;20221;-80
2022/05/20 00:24:10;;;;;;;1.42;1.30;;;;;;;;;;5084361;28;20656;-81
2022/05/20 00:26:37;;;;;;;1.67;1.58;;;;;;;;;;5084347;28;20205;-79
2022/05/20 00:29:05;;;;;;;1.70;1.60;;;;;;;;;;5083445;28;20212;-81
2022/05/20 00:31:33;;;;;;;1.40;1.30;;;;;;;;;;5081770;28;20224;-81
2022/05/20 00:34:00;;;;;;;1.60;1.50;;;;;;;;;;5080771;28;20178;-81
2022/05/20 00:36:28;;;;;;;1.45;1.30;;;;;;;;;;5080887;28;20212;-80
2022/05/20 00:38:55;;;;;;;1.90;1.27;;;;;;;;;;5081368;28;20677;-80
2022/05/20 00:41:22;;;;;;;1.27;1.27;;;;;;;;;;5080701;28;20724;-80
2022/05/20 00:43:52;;;;;;;2.33;1.50;;;;;;;;;;5081025;28;20221;-80
2022/05/20 00:46:22;;;;;;;2.30;2.10;;;;;;;;;;5080467;28;20330;-81
2022/05/20 00:49:04;;;;;;;1.90;1.80;;;;;;;;;;5079996;28;20203;-80
2022/05/20 00:51:34;;;;;;;4.93;2.88;;;;;;;;;;5079570;28;20216;-80
2022/05/20 00:54:04;;;;;;;2.00;1.90;;;;;;;;;;5079912;28;20181;-80
2022/05/20 00:56:36;;;;;;;2.30;1.55;;;;;;;;;;5080105;28;20224;-81
2022/05/20 00:59:05;;;;;;;1.73;1.63;;;;;;;;;;5079853;28;20189;-81
2022/05/20 01:01:34;;;;;;;1.70;1.60;;;;;;;;;;5079316;28;20220;-80
2022/05/20 01:04:04;;;;;;;1.77;1.67;;;;;;;;;;5079050;28;20209;-80
2022/05/20 01:06:31;;;;;;;1.60;1.50;;;;;;;;;;5079462;28;20608;-80
2022/05/20 01:08:58;;;;;;;2.42;2.22;;;;;;;;;;5078673;28;20209;-80
2022/05/20 01:11:26;;;;;;;1.52;1.42;;;;;;;;;;5079306;28;20220;-81
2022/05/20 01:13:54;;;;;;;1.65;1.55;;;;;;;;;;5079190;28;20201;-80
2022/05/20 01:16:21;;;;;;;1.88;1.77;;;;;;;;;;5078721;28;20208;-80
2022/05/20 01:18:53;;;;;;;1.73;1.63;;;;;;;;;;5078318;28;20212;-81
2022/05/20 01:21:21;;;;;;;1.88;1.77;;;;;;;;;;5078940;28;20717;-80
2022/05/20 01:23:50;;;;;;;3.28;3.00;;;;;;;;;;5079049;28;20225;-80
2022/05/20 01:26:18;;;;;;;3.17;2.35;;;;;;;;;;5079041;28;20197;-80
2022/05/20 01:28:45;;;;;;;2.30;2.10;;;;;;;;;;5079494;28;20207;-81
2022/05/20 01:31:15;;;;;;;2.60;2.40;;;;;;;;;;5081823;28;20629;-81
2022/05/20 01:33:46;;;;;;;2.33;2.22;;;;;;;;;;5081010;28;20247;-80
2022/05/20 01:36:16;;;;;;;2.85;2.55;;;;;;;;;;5081199;28;20665;-80
2022/05/20 01:38:43;;;;;;;2.97;2.70;;;;;;;;;;5081678;28;20185;-81
2022/05/20 01:41:14;;;;;;;2.72;2.53;;;;;;;;;;5080997;28;20221;-81
2022/05/20 01:43:56;;;;;;;2.20;2.00;;;;;;;;;;5081049;28;20205;-81
2022/05/20 01:46:32;;;;;;;1.90;1.80;;;;;;;;;;5081498;28;20193;-80
2022/05/20 01:49:18;;;;;;;2.05;1.83;;;;;;;;;;5081299;28;20191;-80
2022/05/20 01:51:51;;;;;;;2.40;2.20;;;;;;;;;;5080018;28;20221;-81
2022/05/20 01:54:24;;;;;;;2.22;2.13;;;;;;;;;;5081305;28;20208;-81
2022/05/20 01:56:59;;;;;;;3.00;2.80;;;;;;;;;;5079176;28;20219;-81
2022/05/20 01:59:31;;;;;;;2.83;2.63;;;;;;;;;;5078179;28;20614;-81
2022/05/20 02:02:04;;;;;;;3.42;2.63;;;;;;;;;;5077332;28;20200;-81
2022/05/20 02:04:35;;;;;;;2.60;2.40;;;;;;;;;;5068413;28;20218;-81
2022/05/20 02:07:08;;;;;;;2.40;2.20;;;;;;;;;;5058661;28;20281;-81
2022/05/20 02:09:40;;;;;;;2.08;1.88;;;;;;;;;;5058399;28;20193;-81
2022/05/20 02:12:11;;;;;;;2.85;1.58;;;;;;;;;;5057985;28;20193;-80
2022/05/20 02:14:44;;;;;;;4.80;2.75;;;;;;;;;;5058370;28;20177;-80
2022/05/20 02:17:19;;;;;;;2.38;2.22;;;;;;;;;;5058387;28;20527;-80
2022/05/20 02:19:49;;;;;;;2.40;1.70;;;;;;;;;;5057759;28;20185;-80
2022/05/20 02:22:21;;;;;;;2.28;2.10;;;;;;;;;;5057552;28;20214;-80
2022/05/20 02:24:48;;;;;;;2.10;2.00;;;;;;;;;;5058119;28;20658;-80
2022/05/20 02:27:21;;;;;;;2.00;1.90;;;;;;;;;;5057373;28;20201;-80
2022/05/20 02:30:07;;;;;;;2.70;1.67;;;;;;;;;;5057202;28;20251;-80
2022/05/20 02:32:39;;;;;;;2.20;2.10;;;;;;;;;;5057287;28;20205;-80
2022/05/20 02:35:07;;;;;;;2.72;2.53;;;;;;;;;;5057665;28;20248;-81
2022/05/20 02:37:37;;;;;;;2.20;2.08;;;;;;;;;;5057397;28;20201;-81
2022/05/20 02:40:07;;;;;;;2.00;1.90;;;;;;;;;;5057621;28;20263;-81
2022/05/20 02:42:36;;;;;;;1.90;1.80;;;;;;;;;;5057845;28;20193;-80
2022/05/20 02:45:04;;;;;;;1.65;1.55;;;;;;;;;;5056967;28;20263;-81
2022/05/20 02:47:35;;;;;;;2.13;2.03;;;;;;;;;;5058040;28;20198;-81
2022/05/20 02:50:04;;;;;;;2.58;2.38;;;;;;;;;;5057873;28;20222;-81
2022/05/20 02:52:31;;;;;;;2.20;2.03;;;;;;;;;;5058460;28;20209;-82
2022/05/20 02:54:59;;;;;;;2.25;2.08;;;;;;;;;;5057540;28;20205;-80
2022/05/20 02:57:27;;;;;;;1.42;1.42;;;;;;;;;;5057345;28;20197;-81
2022/05/20 03:05:26;;;;;;;1.55;1.50;;;;;;;;;;5055150;28;20272;-83
2022/05/20 03:07:53;;;;;;;1.17;1.17;;;;;;;;;;5054816;28;20204;-82
2022/05/20 03:10:20;;;;;;;1.70;1.60;;;;;;;;;;5054607;28;20240;-84
2022/05/20 03:12:48;;;;;;;2.00;1.90;;;;;;;;;;5055089;28;20212;-83
2022/05/20 03:15:20;;;;;;;1.42;1.33;;;;;;;;;;5054545;28;20197;-82
2022/05/20 03:17:47;;;;;;;2.20;1.70;;;;;;;;;;5054957;28;20192;-83
2022/05/20 03:20:14;;;;;;;2.00;1.90;;;;;;;;;;5054554;28;20243;-84
2022/05/20 03:22:41;;;;;;;1.70;1.60;;;;;;;;;;5055097;28;20241;-82
2022/05/20 03:25:10;;;;;;;1.67;1.58;;;;;;;;;;5054688;28;20230;-83
2022/05/20 03:27:38;;;;;;;2.03;1.83;;;;;;;;;;5054958;28;20599;-84
2022/05/20 03:30:07;;;;;;;1.77;1.67;;;;;;;;;;5056264;28;20245;-84
2022/05/20 03:32:36;;;;;;;2.35;2.25;;;;;;;;;;5055192;28;20687;-84
2022/05/20 03:35:04;;;;;;;2.42;2.22;;;;;;;;;;5056132;28;20200;-83
2022/05/20 03:37:32;;;;;;;2.47;2.20;;;;;;;;;;5055997;28;20271;-84
2022/05/20 03:40:00;;;;;;;2.10;1.90;;;;;;;;;;5055582;28;20234;-84
2022/05/20 03:42:27;;;;;;;2.75;2.30;;;;;;;;;;5055584;28;20209;-84
2022/05/20 03:44:55;;;;;;;2.42;2.22;;;;;;;;;;5055829;28;20226;-83
2022/05/20 03:47:22;;;;;;;3.33;3.03;;;;;;;;;;5055162;28;20208;-82
2022/05/20 03:49:50;;;;;;;3.22;2.70;;;;;;;;;;5054676;28;20218;-83
2022/05/20 03:52:18;;;;;;;2.10;2.00;;;;;;;;;;5055093;28;20201;-82
2022/05/20 03:54:46;;;;;;;2.80;2.60;;;;;;;;;;5054907;28;20589;-81
2022/05/20 03:57:13;;;;;;;2.22;2.10;;;;;;;;;;5058969;28;20710;-83
2022/05/20 03:59:40;;;;;;;1.50;1.40;;;;;;;;;;5057818;28;20275;-83
2022/05/20 04:02:11;;;;;;;2.38;2.17;;;;;;;;;;5058356;28;20216;-83
2022/05/20 04:04:41;;;;;;;3.65;2.13;;;;;;;;;;5058928;28;20210;-83
2022/05/20 04:07:13;;;;;;;1.90;1.80;;;;;;;;;;5058456;28;20206;-83
2022/05/20 04:09:41;;;;;;;3.10;2.90;;;;;;;;;;5059560;28;20233;-83
2022/05/20 04:12:12;;;;;;;2.40;2.20;;;;;;;;;;5059065;28;20252;-84
2022/05/20 04:14:40;;;;;;;2.20;2.00;;;;;;;;;;5058978;28;20182;-84
2022/05/20 04:17:08;;;;;;;3.17;2.97;;;;;;;;;;5059259;28;20197;-84
2022/05/20 04:19:36;;;;;;;2.67;2.47;;;;;;;;;;5059337;28;20694;-83
2022/05/20 04:22:07;;;;;;;2.47;2.25;;;;;;;;;;5058922;28;20201;-83
2022/05/20 04:24:36;;;;;;;2.47;2.28;;;;;;;;;;5059048;28;20601;-84
2022/05/20 04:27:05;;;;;;;2.83;2.63;;;;;;;;;;5058982;28;20209;-85
2022/05/20 04:29:32;;;;;;;3.42;2.15;;;;;;;;;;5058166;28;20205;-85
2022/05/20 04:32:00;;;;;;;1.90;1.80;;;;;;;;;;5059970;28;20209;-85
2022/05/20 04:34:27;;;;;;;2.72;2.60;;;;;;;;;;5058384;28;20225;-87
2022/05/20 04:36:54;;;;;;;2.17;2.00;;;;;;;;;;5056374;28;20728;-85
2022/05/20 04:39:22;;;;;;;2.55;2.35;;;;;;;;;;5055462;28;20193;-85
2022/05/20 04:47:25;;;;;;;2.00;1.90;;;;;;;;;;5057216;28;20559;-84
2022/05/20 04:49:53;;;;;;;2.78;2.58;;;;;;;;;;5056964;28;20271;-85
2022/05/20 04:52:21;;;;;;;2.30;2.10;;;;;;;;;;5057485;28;20255;-83
2022/05/20 04:54:50;;;;;;;3.20;3.00;;;;;;;;;;5059668;28;20402;-82
2022/05/20 04:57:31;;;;;;;2.10;2.00;;;;;;;;;;5057390;28;20194;-82
2022/05/20 05:00:03;;;;;;;2.20;2.00;;;;;;;;;;5056675;28;20232;-85
2022/05/20 05:02:30;;;;;;;2.35;2.17;;;;;;;;;;5055307;28;20597;-85
2022/05/20 05:04:57;;;;;;;2.00;1.80;;;;;;;;;;5055484;28;20222;-82
2022/05/20 05:07:25;;;;;;;1.80;1.70;;;;;;;;;;5055453;28;20284;-85
2022/05/20 05:09:53;;;;;;;1.98;1.88;;;;;;;;;;5054530;28;20255;-85
2022/05/20 05:12:23;;;;;;;3.35;3.15;;;;;;;;;;5057216;28;20198;-84
2022/05/20 05:14:53;;;;;;;3.30;3.08;;;;;;;;;;5058096;28;20209;-84
2022/05/20 05:20:06;;;;;;;2.88;2.67;;;;;;;;;;5053210;28;20589;-86
2022/05/20 05:22:33;;;;;;;2.75;2.55;;;;;;;;;;5054759;28;20206;-84
2022/05/20 05:25:01;;;;;;;3.30;3.10;;;;;;;;;;5055641;28;20667;-84
2022/05/20 05:27:29;;;;;;;2.95;2.75;;;;;;;;;;5055573;28;20209;-82
2022/05/20 05:29:57;;;;;;;2.15;1.95;;;;;;;;;;5054391;28;20228;-85
2022/05/20 05:32:24;;;;;;;2.67;2.47;;;;;;;;;;5054008;28;20213;-83
2022/05/20 05:34:51;;;;;;;2.75;2.55;;;;;;;;;;5054670;28;20252;-85
2022/05/20 05:37:18;;;;;;;3.38;3.08;;;;;;;;;;5055072;28;20213;-89
2022/05/20 05:39:46;;;;;;;4.72;4.32;;;;;;;;;;5055770;28;20209;-85
2022/05/20 05:42:13;;;;;;;4.38;3.70;;;;;;;;;;5055297;28;20577;-83
2022/05/20 05:44:42;;;;;;;2.50;2.40;;;;;;;;;;5057563;28;20292;-83
2022/05/20 05:47:09;;;;;;;3.05;2.85;;;;;;;;;;5057646;28;20229;-83
2022/05/20 05:49:37;;;;;;;2.50;2.38;;;;;;;;;;5057526;28;20205;-82
2022/05/20 05:52:05;;;;;;;2.20;2.10;;;;;;;;;;5057604;28;20643;-83
2022/05/20 05:54:33;;;;;;;2.88;2.45;;;;;;;;;;5057414;28;20220;-82
2022/05/20 05:57:00;;;;;;;4.70;4.30;;;;;;;;;;5057204;28;20233;-83
2022/05/20 05:59:28;;;;;;;3.60;3.28;;;;;;;;;;5057172;28;20197;-83
2022/05/20 06:02:00;;;;;;;3.30;3.10;;;;;;;;;;5057373;28;20259;-83
2022/05/20 06:04:28;;;;;;;3.95;3.65;;;;;;;;;;5058105;28;20193;-82
2022/05/20 06:06:55;;;;;;;2.90;2.70;;;;;;;;;;5058203;28;20564;-83
2022/05/20 06:09:24;;;;;;;4.85;4.45;;;;;;;;;;5059078;28;20205;-82
2022/05/20 06:11:51;;;;;;;3.70;3.40;;;;;;;;;;5057354;28;20275;-81
2022/05/20 06:14:19;;;;;;;4.47;4.18;;;;;;;;;;5056641;28;20720;-83
2022/05/20 06:16:46;;;;;;;3.35;3.15;;;;;;;;;;5056537;28;20240;-82
2022/05/20 06:19:16;;;;;;;4.32;4.03;;;;;;;;;;5056327;28;20208;-82
2022/05/20 06:21:43;;;;;;;3.47;3.17;;;;;;;;;;5056875;28;20229;-83
2022/05/20 06:24:10;;;;;;;3.42;3.13;;;;;;;;;;5056151;28;20206;-83
2022/05/20 06:26:41;;;;;;;3.67;3.47;;;;;;;;;;5056604;28;20228;-82
2022/05/20 06:29:09;;;;;;;2.67;2.47;;;;;;;;;;5056722;28;20193;-82
2022/05/20 06:31:36;;;;;;;2.55;2.38;;;;;;;;;;5055483;28;20274;-82
2022/05/20 06:34:03;;;;;;;3.33;3.03;;;;;;;;;;5055611;28;20288;-82
2022/05/20 06:42:02;;;;;;;4.30;3.90;;;;;;;;;;5056855;28;20184;-81
2022/05/20 06:44:29;;;;;;;3.00;2.80;;;;;;;;;;5056054;28;20571;-83
2022/05/20 06:46:56;;;;;;;3.47;3.28;;;;;;;;;;5056453;28;20225;-83
2022/05/20 06:49:23;;;;;;;3.85;3.53;;;;;;;;;;5055785;28;20209;-83
2022/05/20 06:51:54;;;;;;;3.50;3.30;;;;;;;;;;5055803;28;20225;-82
2022/05/20 06:54:22;;;;;;;4.68;4.28;;;;;;;;;;5056149;28;20554;-83
2022/05/20 06:56:49;;;;;;;4.82;4.43;;;;;;;;;;5056766;28;20201;-82
2022/05/20 06:59:16;;;;;;;3.97;3.67;;;;;;;;;;5056365;28;20700;-82
2022/05/20 07:01:44;;;;;;;4.03;3.70;;;;;;;;;;5055066;28;20225;-82
2022/05/20 07:04:11;;;;;;;4.35;3.95;;;;;;;;;;5055874;28;20406;-83
2022/05/20 07:06:38;;;;;;;3.92;3.63;;;;;;;;;;5055305;28;20230;-82
2022/05/20 07:09:07;;;;;;;3.90;3.47;;;;;;;;;;5054960;28;20674;-82
2022/05/20 07:11:35;;;;;;;3.25;3.05;;;;;;;;;;5055676;28;20769;-83
2022/05/20 07:14:03;;;;;;;3.42;3.22;;;;;;;;;;5054983;28;20227;-83
2022/05/20 07:16:31;;;;;;;3.83;3.53;;;;;;;;;;5054807;28;20221;-82
2022/05/20 07:18:59;;;;;;;2.92;2.72;;;;;;;;;;5055617;28;20683;-83
2022/05/20 07:21:27;;;;;;;5.20;4.80;;;;;;;;;;5056718;28;20225;-81
2022/05/20 07:23:55;;;;;;;3.70;3.42;;;;;;;;;;5056658;28;20747;-82
2022/05/20 07:26:24;;;;;;;7.35;5.43;;;;;;;;;;5056063;28;20222;-82
2022/05/20 07:28:51;;;;;;;5.68;5.10;;;;;;;;;;5057060;28;20209;-83
2022/05/20 07:31:23;;;;;;;6.72;6.03;;;;;;;;;;5059028;28;20226;-83
2022/05/20 07:33:50;;;;;;;5.30;4.90;;;;;;;;;;5060354;28;20209;-83
2022/05/20 07:36:17;;;;;;;7.05;6.43;;;;;;;;;;5061081;28;20205;-83
2022/05/20 07:38:45;;;;;;;5.03;4.63;;;;;;;;;;5060241;28;20240;-83
2022/05/20 07:41:14;;;;;;;6.57;6.05;;;;;;;;;;5061141;28;20218;-83
2022/05/20 07:43:42;;;;;;;5.53;4.80;;;;;;;;;;5060973;28;20193;-83
2022/05/20 07:46:10;;;;;;;5.57;5.05;;;;;;;;;;5061052;28;20201;-83
2022/05/20 07:48:37;;;;;;;5.70;5.22;;;;;;;;;;5060539;28;20210;-83
2022/05/20 07:51:09;;;;;;;5.72;5.22;;;;;;;;;;5059614;28;20271;-84
2022/05/20 07:53:44;;;;;;;8.88;7.57;;;;;;;;;;5062184;28;20178;-83
2022/05/20 07:56:14;;;;;;;8.88;7.80;;;;;;;;;;5062169;28;20205;-81
2022/05/20 07:58:46;;;;;;;12.48;9.75;;;;;;;;;;5061961;28;20186;-82
2022/05/20 08:01:14;;;;;;;7.60;6.90;;;;;;;;;;5061774;28;20218;-83
2022/05/20 08:06:26;;;;;;;8.88;8.07;;;;;;;;;;5062964;28;20286;-82
2022/05/20 08:08:54;;;;;;;6.95;6.32;;;;;;;;;;5061278;28;20194;-81
2022/05/20 08:11:22;;;;;;;8.15;7.45;;;;;;;;;;5060887;28;20282;-83
2022/05/20 08:13:50;;;;;;;8.95;8.25;;;;;;;;;;5060914;28;20327;-82
2022/05/20 08:16:19;;;;;;;7.93;7.28;;;;;;;;;;5061273;28;20202;-83
2022/05/20 08:18:46;;;;;;;5.40;4.97;;;;;;;;;;5061352;28;20194;-83
2022/05/20 08:21:13;;;;;;;4.63;4.22;;;;;;;;;;5060468;28;20222;-82
2022/05/20 08:23:40;;;;;;;6.15;5.60;;;;;;;;;;5060197;28;20251;-82
2022/05/20 08:26:08;;;;;;;5.43;5.03;;;;;;;;;;5060673;28;20590;-82
2022/05/20 08:28:35;;;;;;;4.25;3.95;;;;;;;;;;5060637;28;20221;-82
2022/05/20 08:31:04;;;;;;;4.72;4.43;;;;;;;;;;5060323;28;20226;-83
2022/05/20 08:33:32;;;;;;;6.68;6.05;;;;;;;;;;5061477;28;20245;-83
2022/05/20 08:35:59;;;;;;;5.07;4.60;;;;;;;;;;5060451;28;20673;-83
2022/05/20 08:38:26;;;;;;;6.38;5.88;;;;;;;;;;5061978;28;20197;-81
2022/05/20 08:40:54;;;;;;;6.07;5.57;;;;;;;;;;5061802;28;20226;-83
2022/05/20 08:43:26;;;;;;;5.82;5.43;;;;;;;;;;5060178;28;20206;-82
2022/05/20 08:45:54;;;;;;;6.35;5.85;;;;;;;;;;5060818;28;20201;-82
2022/05/20 08:48:22;;;;;;;6.47;5.88;;;;;;;;;;5061503;28;20233;-82
2022/05/20 08:50:52;;;;;;;7.97;7.22;;;;;;;;;;5061925;28;20740;-83
2022/05/20 08:53:24;;;;;;;6.50;6.00;;;;;;;;;;5060736;28;20562;-82
2022/05/20 08:55:51;;;;;;;7.65;6.95;;;;;;;;;;5060699;28;20186;-82
2022/05/20 08:58:22;;;;;;;7.72;7.03;;;;;;;;;;5060522;28;20229;-83
2022/05/20 09:00:49;;;;;;;9.20;8.40;;;;;;;;;;5061346;28;20229;-82
2022/05/20 09:03:17;;;;;;;6.55;6.05;;;;;;;;;;5059785;28;20701;-83
2022/05/20 09:05:46;;;;;;;6.80;6.20;;;;;;;;;;5058481;28;20700;-83
2022/05/20 09:08:28;;;;;;;9.68;8.98;;;;;;;;;;5058115;28;20225;-83
2022/05/20 09:10:58;;;;;;;8.15;7.45;;;;;;;;;;5057412;28;20660;-82
2022/05/20 09:16:09;;;;;;;6.50;6.00;;;;;;;;;;5059115;28;20267;-83
2022/05/20 09:18:40;;;;;;;7.18;6.57;;;;;;;;;;5059042;28;20612;-83
2022/05/20 09:21:24;;;;;;;6.68;6.18;;;;;;;;;;5059153;28;20238;-82
2022/05/20 09:23:55;;;;;;;6.55;6.05;;;;;;;;;;5059126;28;20231;-83
2022/05/20 09:26:25;;;;;;;11.10;7.40;;;;;;;;;;5060490;28;20209;-85
2022/05/20 09:28:57;;;;;;;8.98;8.27;;;;;;;;;;5060146;28;20210;-85
2022/05/20 09:31:28;;;;;;;7.60;7.00;;;;;;;;;;5059814;28;20230;-84
2022/05/20 09:34:09;;;;;;;7.82;7.13;;;;;;;;;;5064759;28;20215;-84
2022/05/20 09:36:45;;;;;;;7.55;6.95;;;;;;;;;;5063661;28;20229;-85
2022/05/20 09:39:18;;;;;;;6.60;6.00;;;;;;;;;;5063147;28;20192;-85
2022/05/20 09:41:49;;;;;;;5.05;4.68;;;;;;;;;;5059459;28;20291;-84
2022/05/20 09:44:19;;;;;;;5.82;5.43;;;;;;;;;;5059826;28;20209;-86
2022/05/20 09:46:52;;;;;;;7.57;6.93;;;;;;;;;;5059918;28;20205;-84
2022/05/20 09:49:32;;;;;;;6.30;5.90;;;;;;;;;;5058827;28;20253;-85
2022/05/20 09:52:02;;;;;;;7.80;7.18;;;;;;;;;;5059737;28;20197;-84
2022/05/20 09:54:33;;;;;;;9.23;8.52;;;;;;;;;;5059136;28;20282;-85
2022/05/20 09:57:08;;;;;;;6.50;6.00;;;;;;;;;;5059473;28;20186;-85
2022/05/20 09:59:49;;;;;;;6.25;5.75;;;;;;;;;;5059450;28;20634;-85
2022/05/20 10:02:25;;;;;;;8.95;8.25;;;;;;;;;;5058091;28;20205;-85
2022/05/20 10:05:03;;;;;;;8.35;7.45;;;;;;;;;;5059752;28;20193;-85
2022/05/20 10:07:54;;;;;;;7.30;6.70;;;;;;;;;;5059356;28;20226;-85
2022/05/20 10:10:37;;;;;;;9.05;8.35;;;;;;;;;;5057807;28;20237;-86
2022/05/20 10:13:08;;;;;;;10.52;8.75;;;;;;;;;;5057095;28;20208;-85
2022/05/20 10:15:41;;;;;;;7.18;6.68;;;;;;;;;;5058303;28;20189;-84
2022/05/20 10:18:23;;;;;;;6.30;5.72;;;;;;;;;;5059119;28;20679;-84
2022/05/20 10:20:56;;;;;;;5.10;4.70;;;;;;;;;;5058817;28;20639;-85
2022/05/20 10:23:33;;;;;;;5.20;4.80;;;;;;;;;;5057771;28;20185;-85
2022/05/20 10:26:08;;;;;;;5.43;5.03;;;;;;;;;;5059230;28;20197;-85
2022/05/20 10:34:23;;;;;;;4.93;4.53;;;;;;;;;;5059117;28;20208;-85
2022/05/20 10:36:59;;;;;;;6.95;6.40;;;;;;;;;;5058849;28;20666;-85
2022/05/20 10:40:06;;;;;;;5.28;4.88;;;;;;;;;;5059488;28;20185;-84
2022/05/20 10:42:59;;;;;;;5.80;5.30;;;;;;;;;;5044854;28;20213;-84
2022/05/20 10:48:50;;;;;;;4.82;4.43;;;;;;;;;;5037491;28;20281;-85
2022/05/20 10:51:39;;;;;;;5.68;5.28;;;;;;;;;;5058772;28;20225;-85
2022/05/20 10:54:32;;;;;;;4.55;4.25;;;;;;;;;;5059085;28;20685;-84
2022/05/20 10:57:25;;;;;;;5.57;5.18;;;;;;;;;;5058363;28;20201;-84
2022/05/20 11:00:06;;;;;;;6.03;5.32;;;;;;;;;;5058769;28;20222;-84
2022/05/20 11:02:58;;;;;;;6.00;5.50;;;;;;;;;;5058450;28;20208;-85
2022/05/20 11:05:44;;;;;;;5.82;5.43;;;;;;;;;;5057590;28;20201;-85
2022/05/20 11:08:22;;;;;;;5.15;4.75;;;;;;;;;;5058550;28;20186;-84
2022/05/20 11:11:16;;;;;;;4.40;4.10;;;;;;;;;;5058195;28;20500;-85
2022/05/20 11:14:03;;;;;;;4.63;4.32;;;;;;;;;;5059198;28;20259;-85
2022/05/20 11:16:55;;;;;;;4.28;3.97;;;;;;;;;;5059327;28;20178;-85
2022/05/20 11:20:15;;;;;;;3.38;3.17;;;;;;;;;;5058942;28;20189;-85
2022/05/20 11:23:15;;;;;;;4.72;4.35;;;;;;;;;;5033815;28;20201;-85
2022/05/20 11:26:21;;;;;;;3.88;3.67;;;;;;;;;;5058699;28;20186;-85
2022/05/20 11:29:49;;;;;;;4.07;3.78;;;;;;;;;;5058136;28;20209;-84
2022/05/20 11:32:28;;;;;;;3.90;3.55;;;;;;;;;;5055960;28;20206;-84
2022/05/20 11:35:23;;;;;;;4.13;3.83;;;;;;;;;;5058361;28;20198;-84
2022/05/20 11:38:23;;;;;;;3.67;3.38;;;;;;;;;;5058844;28;20654;-85
2022/05/20 11:41:06;;;;;;;3.75;3.45;;;;;;;;;;5058497;28;20312;-85
2022/05/20 11:44:00;;;;;;;3.38;3.17;;;;;;;;;;5058888;28;20635;-85
2022/05/20 11:46:46;;;;;;;3.35;3.15;;;;;;;;;;5050640;28;20275;-84
2022/05/20 11:49:34;;;;;;;3.25;3.05;;;;;;;;;;5058208;28;20213;-85
2022/05/20 11:52:30;;;;;;;3.78;3.50;;;;;;;;;;5058244;28;20186;-84
2022/05/20 11:55:02;;;;;;;3.60;3.38;;;;;;;;;;5057870;28;20289;-84
2022/05/20 11:57:38;;;;;;;3.22;2.80;;;;;;;;;;5058154;28;20209;-86
2022/05/20 12:00:09;;;;;;;3.92;3.63;;;;;;;;;;5057694;28;20213;-85
2022/05/20 12:02:41;;;;;;;4.25;3.88;;;;;;;;;;5056941;28;20197;-84
2022/05/20 12:05:11;;;;;;;3.10;2.90;;;;;;;;;;5057488;28;20578;-84
2022/05/20 12:07:41;;;;;;;2.70;2.60;;;;;;;;;;5058202;28;20593;-84
2022/05/20 12:10:38;;;;;;;3.38;3.10;;;;;;;;;;5058935;28;20265;-84
2022/05/20 12:13:15;;;;;;;2.92;2.72;;;;;;;;;;5057014;28;20193;-84
2022/05/20 12:15:50;;;;;;;3.75;3.42;;;;;;;;;;5056654;28;20629;-84
2022/05/20 12:24:33;;;;;;;3.38;3.17;;;;;;;;;;5060219;28;20266;-84
2022/05/20 12:27:01;;;;;;;3.70;3.40;;;;;;;;;;5061343;28;20192;-84
2022/05/20 12:30:26;;;;;;;3.08;2.88;;;;;;;;;;5061176;28;20229;-84
2022/05/20 12:32:54;;;;;;;3.00;2.80;;;;;;;;;;5060569;28;20217;-84
2022/05/20 12:35:30;;;;;;;3.55;3.25;;;;;;;;;;5060909;28;20202;-84
2022/05/20 12:38:25;;;;;;;3.17;2.97;;;;;;;;;;5060784;28;20201;-85
2022/05/20 12:41:03;;;;;;;3.92;3.60;;;;;;;;;;5060520;28;20225;-84
2022/05/20 12:44:19;;;;;;;3.38;3.15;;;;;;;;;;5059696;28;20208;-84
2022/05/20 12:47:10;;;;;;;3.08;2.88;;;;;;;;;;5034563;28;20197;-84
2022/05/20 12:49:40;;;;;;;2.70;2.58;;;;;;;;;;5059367;28;20212;-84
2022/05/20 12:52:15;;;;;;;2.92;2.72;;;;;;;;;;5059747;28;20186;-84
2022/05/20 12:54:45;;;;;;;2.40;2.30;;;;;;;;;;5059935;28;20594;-83
2022/05/20 12:57:19;;;;;;;3.05;2.85;;;;;;;;;;5058788;28;20316;-82
2022/05/20 12:59:52;;;;;;;3.15;2.95;;;;;;;;;;5056198;28;20209;-82
2022/05/20 13:02:22;;;;;;;3.03;2.83;;;;;;;;;;5056301;28;20209;-81
2022/05/20 13:04:59;;;;;;;2.63;2.42;;;;;;;;;;5056449;28;20202;-82
2022/05/20 13:07:26;;;;;;;2.92;2.78;;;;;;;;;;5055925;28;20654;-81
2022/05/20 13:09:54;;;;;;;3.00;2.80;;;;;;;;;;5055682;28;20225;-82
2022/05/20 13:12:24;;;;;;;3.17;2.97;;;;;;;;;;5054544;28;20670;-82
2022/05/20 13:15:01;;;;;;;2.78;2.58;;;;;;;;;;5056089;28;20205;-82
2022/05/20 13:17:31;;;;;;;3.35;3.05;;;;;;;;;;5055049;28;20209;-82
2022/05/20 13:19:59;;;;;;;2.83;2.63;;;;;;;;;;5055885;28;20218;-81
2022/05/20 13:22:28;;;;;;;2.95;2.75;;;;;;;;;;5055829;28;20201;-83
2022/05/20 13:25:00;;;;;;;3.50;3.20;;;;;;;;;;5055592;28;20198;-83
2022/05/20 13:27:28;;;;;;;4.50;3.97;;;;;;;;;;5055022;28;20231;-83
2022/05/20 13:29:57;;;;;;;3.72;3.35;;;;;;;;;;5055489;28;20609;-83
2022/05/20 13:32:31;;;;;;;3.95;3.65;;;;;;;;;;5054376;28;20213;-83
2022/05/20 13:35:00;;;;;;;3.72;3.42;;;;;;;;;;5056477;28;20212;-83
2022/05/20 13:37:32;;;;;;;3.38;3.08;;;;;;;;;;5058501;28;20626;-82
2022/05/20 13:40:12;;;;;;;3.65;3.35;;;;;;;;;;5057776;28;20228;-81
2022/05/20 13:42:39;;;;;;;3.35;2.92;;;;;;;;;;5057203;28;20217;-84
2022/05/20 13:45:12;;;;;;;3.70;3.40;;;;;;;;;;5057698;28;20651;-85
2022/05/20 13:50:27;;;;;;;3.47;3.05;;;;;;;;;;5056403;28;20229;-85
2022/05/20 13:52:57;;;;;;;2.75;2.60;;;;;;;;;;5057065;28;20239;-84
2022/05/20 13:55:31;;;;;;;2.83;2.63;;;;;;;;;;5058099;28;20596;-85
2022/05/20 13:57:59;;;;;;;3.08;2.50;;;;;;;;;;5056271;28;20205;-85
2022/05/20 14:00:33;;;;;;;3.53;3.33;;;;;;;;;;5054756;28;20236;-85
2022/05/20 14:03:18;;;;;;;3.50;3.30;;;;;;;;;;5053299;28;20209;-87
2022/05/20 14:05:49;;;;;;;3.17;2.88;;;;;;;;;;5052084;28;20208;-87
2022/05/20 14:08:19;;;;;;;3.35;3.13;;;;;;;;;;5055814;28;20214;-87
2022/05/20 14:10:50;;;;;;;2.88;2.67;;;;;;;;;;5055871;28;20237;-87
2022/05/20 14:13:26;;;;;;;3.03;2.83;;;;;;;;;;5053784;28;20201;-87
2022/05/20 14:15:56;;;;;;;2.75;2.55;;;;;;;;;;5055510;28;20243;-86
2022/05/20 14:18:30;;;;;;;4.35;2.72;;;;;;;;;;5061394;28;20210;-84
2022/05/20 14:21:11;;;;;;;2.63;2.42;;;;;;;;;;5065310;28;20226;-85
2022/05/20 14:23:47;;;;;;;3.08;2.88;;;;;;;;;;5065432;28;20211;-85
2022/05/20 14:26:22;;;;;;;2.50;2.40;;;;;;;;;;5064566;28;20565;-85
2022/05/20 14:28:57;;;;;;;3.60;3.40;;;;;;;;;;5061809;28;20209;-85
2022/05/20 14:31:32;;;;;;;3.33;3.05;;;;;;;;;;5061375;28;20273;-86
2022/05/20 14:34:07;;;;;;;2.75;2.50;;;;;;;;;;5062355;28;20232;-86
2022/05/20 14:36:36;;;;;;;3.05;2.85;;;;;;;;;;5062966;28;20602;-85
2022/05/20 14:39:05;;;;;;;2.95;2.75;;;;;;;;;;5061594;28;20576;-85
2022/05/20 14:41:34;;;;;;;2.42;2.25;;;;;;;;;;5054968;28;20268;-85
2022/05/20 14:44:07;;;;;;;3.40;3.10;;;;;;;;;;5055712;28;20216;-85
2022/05/20 14:49:27;;;;;;;3.00;2.80;;;;;;;;;;5062161;28;20244;-85
2022/05/20 14:51:56;;;;;;;2.45;2.35;;;;;;;;;;5061300;28;20267;-86
2022/05/20 14:54:30;;;;;;;3.00;2.80;;;;;;;;;;5055814;28;20206;-87
2022/05/20 14:56:58;;;;;;;2.80;2.60;;;;;;;;;;5052734;28;20296;-89
2022/05/20 14:59:34;;;;;;;2.90;2.70;;;;;;;;;;5049771;28;20208;-87
2022/05/20 15:02:02;;;;;;;3.90;3.55;;;;;;;;;;5052327;28;20591;-88
2022/05/20 15:04:31;;;;;;;3.33;3.13;;;;;;;;;;5053018;28;20210;-87
2022/05/20 15:07:02;;;;;;;3.22;3.03;;;;;;;;;;5053868;28;20209;-87
2022/05/20 15:09:35;;;;;;;3.38;3.08;;;;;;;;;;5060508;28;20654;-84
2022/05/20 15:12:07;;;;;;;3.95;3.65;;;;;;;;;;5065097;28;20222;-84
2022/05/20 15:14:34;;;;;;;4.00;3.70;;;;;;;;;;5065420;28;20331;-84
2022/05/20 15:17:01;;;;;;;4.07;3.67;;;;;;;;;;5066045;28;20216;-84
2022/05/20 15:19:30;;;;;;;4.78;3.92;;;;;;;;;;5065545;28;20288;-83
2022/05/20 15:21:58;;;;;;;3.97;3.67;;;;;;;;;;5065964;28;20202;-84
2022/05/20 15:24:31;;;;;;;4.13;3.83;;;;;;;;;;5065784;28;20205;-82
2022/05/20 15:26:59;;;;;;;4.38;4.07;;;;;;;;;;5064801;28;20213;-82
2022/05/20 15:29:26;;;;;;;4.63;4.20;;;;;;;;;;5056295;28;20216;-82
2022/05/20 15:34:56;;;;;;;4.28;3.95;;;;;;;;;;5055857;28;20300;-84
2022/05/20 15:37:30;;;;;;;3.90;3.58;;;;;;;;;;5038170;28;20202;-83
2022/05/20 15:40:02;;;;;;;4.65;4.22;;;;;;;;;;5038169;28;20248;-81
2022/05/20 15:42:30;;;;;;;5.47;3.90;;;;;;;;;;5037325;28;20197;-82
2022/05/20 15:44:57;;;;;;;3.20;3.00;;;;;;;;;;5036364;28;20608;-83
2022/05/20 15:47:26;;;;;;;4.07;3.78;;;;;;;;;;5035778;28;20253;-80
2022/05/20 15:49:55;;;;;;;4.53;4.05;;;;;;;;;;5035645;28;20615;-83
2022/05/20 15:52:27;;;;;;;5.25;4.85;;;;;;;;;;5038281;28;20226;-82
2022/05/20 15:54:58;;;;;;;5.22;4.63;;;;;;;;;;5040000;28;20183;-82
2022/05/20 15:57:26;;;;;;;4.82;4.10;;;;;;;;;;5040138;28;20238;-82
2022/05/20 15:59:54;;;;;;;3.83;3.63;;;;;;;;;;5038617;28;20226;-83
2022/05/20 16:02:23;;;;;;;3.97;3.67;;;;;;;;;;5038794;28;20202;-83